Mangalore Airport
VOML : now visible

Airfield :











YOU CAN JOIN US ON...

 
LOGIN :

Register | Disclaimer

   EN    FR    IT 

 









Legend :    VFR   Marginal VFR   IFR   Intensive IFR   Very Intensive IFR
Visi :
Ceiling :
>= 8 km
>= 3000ft
5 to 8 km
1000 to 3000 ft
1500m to 5 km
500 to 1000 ft
800 to 1500m
200 to 500 ft
< 800m
< 200 ft
Symbols :   Thunderstorms  Fog  Heavy snow  Heavy precipitations  Wind > 20 kt






- Airport Elevation : 337 ft
- IATA code : IXE


VOML - Mangalore

CURRENT METAR :
  • 301600Z 00000KT 5000 TS BR SCT012 FEW025CB SCT080 29/27 Q1008 NOSIG

EXPIRED METARs :
  • 301530Z 00000KT 5000 TS BR FEW012 FEW025CB BKN080 29/27 Q1008 TEMPO -TSRA BR
  • 301500Z 00000KT 5000 TS BR FEW012 FEW025CB BKN080 29/26 Q1008 TEMPO -TSRA BR
  • 301430Z 00000KT 5000 BR FEW012 FEW025CB BKN080 30/26 Q1007 NOSIG
  • 301400Z 28004KT 5000 -DZ BR FEW012 FEW025CB BKN080 29/26 Q1007 NOSIG
  • 301330Z 26005KT 6000 -RA FEW015 FEW025CB BKN080 30/26 Q1006 TEMPO 5000 -RA BR

TAF TAF VOML
Valid from the 30 at 15:00 until the 31 at 00:00 UTC


301400Z 3015/3024 27010KT 6000 SCT015 SCT080
TEMPO 3015/3018 4000 TSRA RA SCT012 FEW025CB BKN080
VOMF FIR / Asia



MET'MAP, your aeronautical weather chart ! - Copyright ORBIFLY December 2007 - Disclaimer

ORBIFLY MET'MAP TEAM :

Programming & Development : Alexandra Zaïnal
Concept & original design : Baudouin d'Aumeries
Assistance for programming : Marc-Olivier Méhu
Technical & hardware support : Manuel Goepfert

Contact : metmap@orbifly.com




SOURCES & CREDITS :

   NOAA       Earth
Advisory